Aviation Digital Data Service (ADDS)

Output produced by METARs form (0634 UTC 27 March 2017)
found at http://www.aviationweather.gov/adds/metars/
 
KVCT 270534Z 2706/2806 15012KT P6SM SCT030 
     FM271000 18004KT 5SM BR BKN012 
     TEMPO 2710/2713 2SM BR 
     FM271500 17008KT P6SM BKN025 
     FM271700 16010G15KT P6SM SCT040 
     FM280300 15007KT P6SM SCT015 
     TEMPO 2803/2806 BKN015
       
KVEL 270539Z 2706/2806 33005KT P6SM OVC100 
     FM271200 VRB04KT P6SM BKN100 
     FM271600 14005KT P6SM VCSH BKN060 
     FM272200 28007KT P6SM -SHRA BKN050 
     FM280000 34008KT 6SM -SHRA BKN040 
     FM280400 33005KT 5SM -SHRA OVC035
       
KVGT 270528Z 2706/2806 VRB05KT P6SM FEW150 FEW250 
     FM270800 32008KT P6SM FEW150 
     FM271800 32014G23KT P6SM SCT100 
     FM280000 34025G35KT P6SM BKN100
       
KVIS 270537Z 2706/2806 VRB03KT P6SM SCT050 BKN120 
     FM270900 31006KT P6SM -SHRA BKN050 
     FM271800 33015G23KT P6SM BKN050 
     FM280300 33010KT P6SM SCT250
       
KVLD 270541Z 2706/2806 00000KT P6SM SCT050 
     FM271000 00000KT 3SM BR SCT005 
     FM271300 17005KT P6SM SCT025
       
KVNY 270532Z 2706/2806 VRB03KT P6SM SCT040 BKN120 
     FM271100 VRB03KT P6SM SCT040 BKN120 
     FM271700 35008KT P6SM SCT050 
     FM272000 35016G24KT P6SM SKC 
     FM280400 13008KT P6SM SKC
       
TAF AMD KVPS 270630Z 2706/2805 17009KT 1600 BR BKN002 OVC020 QNH3003INS 
     TEMPO 2706/2711 BKN007 
     BECMG 2711/2712 14006KT 4800 BR SCT010 BKN020 QNH3003INS 
     BECMG 2714/2715 16009KT 9999 NSW SCT020 SCT050 BKN250 QNH3000INS 
     BECMG 2804/2805 19006KT 4800 BR BKN005 OVC010 QNH3000INS TX25/2721Z TN17/2712Z
       
KVQQ 270612Z 2706/2806 00000KT 4SM BR SCT030 
     TEMPO 2707/2711 2SM BR 
     FM271400 16003KT P6SM SCT040 
     FM271900 10008KT P6SM VCSH SCT050 SCT250 
     FM280000 16003KT P6SM SCT050
       
KVRB 270539Z 2706/2806 10005KT P6SM SKC 
     FM271500 07010KT P6SM SCT040 
     FM280200 09005KT P6SM FEW030
       
KVTN 270536Z 2706/2806 VRB03KT P6SM FEW020 OVC100 
     FM270800 VRB03KT P6SM BKN020 
     FM271200 VRB03KT P6SM OVC010 
     TEMPO 2712/2715 4SM BR OVC006 
     FM271600 16005KT P6SM SCT015 SCT250 
     FM271800 16007KT P6SM SCT050 SCT250 
     FM272100 14009KT P6SM BKN250